Time;durP1;ratioP1;P1;durP2;ratioP2;P2;SDS_P1;SDS_P2;PMS_P1;PMS_P2;Temp;Humidity;BMP_temperature;BMP_pressure;BME280_temperature;BME280_humidity;BME280_pressure;Samples;Min_cycle;Max_cycle;Signal;HPM_P1;HPM_P2
2024/01/25 00:00:56;;;;;;;48.63;11.38;;;9.90;99.90;;;9.87;93.81;102656.28;4954413;29;20724;-71
2024/01/25 00:03:25;;;;;;;60.03;11.63;;;9.90;99.90;;;10.02;93.91;102696.34;4954390;28;20404;-71
2024/01/25 00:05:54;;;;;;;57.15;11.98;;;9.80;99.90;;;9.93;94.74;102693.44;4954618;28;20073;-70
2024/01/25 00:08:22;;;;;;;52.08;11.63;;;9.70;99.90;;;9.86;95.44;102680.91;4954374;28;20504;-70
2024/01/25 00:10:51;;;;;;;56.33;12.30;;;9.70;99.90;;;9.87;95.32;102685.34;4954522;29;20047;-70
2024/01/25 00:13:21;;;;;;;56.25;11.60;;;9.70;99.90;;;9.94;95.18;102684.66;4952956;29;20043;-71
2024/01/25 00:15:49;;;;;;;59.97;11.93;;;9.70;99.90;;;9.86;95.50;102684.44;4954297;29;20043;-70
2024/01/25 00:18:18;;;;;;;51.30;11.48;;;9.60;99.90;;;9.85;95.64;102690.56;4954309;28;20126;-70
2024/01/25 00:20:46;;;;;;;47.80;11.30;;;9.60;99.90;;;9.93;95.53;102683.75;4954445;29;20040;-71
2024/01/25 00:23:15;;;;;;;50.08;11.52;;;9.70;99.90;;;9.84;95.38;102677.31;4954488;29;20094;-70
2024/01/25 00:25:43;;;;;;;69.13;12.02;;;9.60;99.90;;;9.93;95.26;102667.91;4954162;29;20074;-70
2024/01/25 00:28:12;;;;;;;55.75;11.90;;;9.70;99.90;;;9.76;95.52;102679.75;4954606;29;20079;-71
2024/01/25 00:30:42;;;;;;;55.15;11.27;;;9.60;99.90;;;9.80;95.67;102676.34;4954343;29;20039;-71
2024/01/25 00:33:11;;;;;;;50.05;11.07;;;9.60;99.90;;;9.78;95.17;102672.78;4954385;28;20055;-71
2024/01/25 00:35:40;;;;;;;63.40;11.98;;;9.60;99.90;;;9.64;95.57;102674.13;4954358;29;20050;-71
2024/01/25 00:38:10;;;;;;;50.83;10.95;;;9.50;99.90;;;9.74;96.11;102676.19;4954370;28;20043;-71
2024/01/25 00:40:40;;;;;;;57.30;11.77;;;9.50;99.90;;;9.64;95.69;102647.69;4954123;28;20069;-71
2024/01/25 00:43:10;;;;;;;56.33;11.25;;;9.50;99.90;;;9.82;95.50;102674.66;4953967;29;20050;-71
2024/01/25 00:45:41;;;;;;;58.30;12.50;;;9.60;99.90;;;9.75;95.37;102662.13;4953919;29;20071;-71
2024/01/25 00:48:11;;;;;;;;;;;9.60;99.90;;;9.80;95.67;102672.81;4954401;28;20212;-70
2024/01/25 00:50:41;;;;;;;52.38;11.57;;;9.60;99.90;;;9.85;95.31;102674.72;4954022;28;19929;-71
2024/01/25 00:53:10;;;;;;;57.95;12.13;;;9.60;99.90;;;9.83;95.93;102679.06;4953843;29;20556;-70
2024/01/25 00:55:41;;;;;;;59.42;11.82;;;9.60;99.90;;;9.71;95.54;102689.31;4953867;28;20576;-71
2024/01/25 00:58:10;;;;;;;55.65;11.75;;;9.50;99.90;;;9.76;96.17;102677.13;4954831;28;20568;-71
2024/01/25 01:00:40;;;;;;;64.95;12.27;;;9.50;99.90;;;9.79;95.90;102681.59;4957445;28;20065;-71
2024/01/25 01:03:11;;;;;;;49.75;11.30;;;9.50;99.90;;;9.75;95.85;102688.56;4957376;28;20505;-70
2024/01/25 01:05:40;;;;;;;46.38;11.63;;;9.50;99.90;;;9.86;95.74;102691.47;4957339;29;20047;-71
2024/01/25 01:08:11;;;;;;;59.35;12.00;;;9.60;99.90;;;9.83;95.10;102688.75;4957276;28;20126;-71
2024/01/25 01:10:39;;;;;;;;;;;9.60;99.90;;;9.74;95.25;102692.03;4957740;28;20047;-71
2024/01/25 01:13:08;;;;;;;52.47;11.88;;;9.60;99.90;;;9.74;95.42;102692.03;4957059;29;20017;-71
2024/01/25 01:15:36;;;;;;;54.38;10.98;;;9.50;99.90;;;9.73;95.81;102703.47;4957763;28;20401;-71
2024/01/25 01:18:06;;;;;;;61.83;11.85;;;9.50;99.90;;;9.85;95.84;102702.91;4957405;28;20053;-71
2024/01/25 01:20:36;;;;;;;56.70;12.27;;;9.60;99.90;;;9.79;96.09;102700.09;4957141;28;20114;-72
2024/01/25 01:23:05;;;;;;;65.65;12.43;;;9.50;99.90;;;9.77;95.71;102710.63;4957578;28;20429;-71
2024/01/25 01:25:33;;;;;;;61.38;12.63;;;9.50;99.90;;;9.75;95.87;102695.56;4955955;28;20055;-71
2024/01/25 01:28:01;;;;;;;56.05;11.30;;;9.50;99.90;;;9.67;96.08;102705.03;4956923;29;20409;-71
2024/01/25 01:30:30;;;;;;;52.75;11.90;;;9.50;99.90;;;9.77;96.00;102718.56;4956937;29;20043;-71
2024/01/25 01:32:58;;;;;;;64.57;12.85;;;9.50;99.90;;;9.78;95.91;102722.97;4971857;28;20047;-71
2024/01/25 01:35:27;;;;;;;52.70;10.77;;;9.50;99.90;;;9.70;96.00;102726.25;4956664;29;20477;-71
2024/01/25 01:37:57;;;;;;;54.53;11.57;;;9.50;99.90;;;9.74;96.01;102718.47;4957003;28;20051;-71
2024/01/25 01:40:25;;;;;;;57.50;12.00;;;9.50;99.90;;;9.74;96.15;102726.38;4957319;28;20110;-71
2024/01/25 01:43:00;;;;;;;56.42;12.48;;;9.50;99.90;;;9.70;96.08;102737.72;4956630;28;20489;-72
2024/01/25 01:45:29;;;;;;;58.92;12.15;;;9.40;99.90;;;9.58;96.77;102758.47;4957189;28;20047;-71
2024/01/25 01:47:58;;;;;;;57.92;12.43;;;9.40;99.90;;;9.41;96.84;102716.56;4956546;29;20047;-72
2024/01/25 01:50:28;;;;;;;59.03;12.18;;;9.30;99.90;;;9.63;96.82;102735.75;4956284;28;20090;-71
2024/01/25 01:52:58;;;;;;;57.33;11.77;;;9.30;99.90;;;9.60;97.06;102754.13;4956535;29;20050;-71
2024/01/25 01:55:27;;;;;;;49.38;11.32;;;9.30;99.90;;;9.59;97.30;102757.66;4955719;29;20040;-71
2024/01/25 01:57:55;;;;;;;53.47;12.27;;;9.30;99.90;;;9.54;97.34;102739.88;4954363;29;20070;-72
2024/01/25 02:00:26;;;;;;;54.47;11.48;;;9.30;99.90;;;9.68;96.57;102754.38;5425675;23;20089;-63
2024/01/25 02:02:54;;;;;;;57.53;12.68;;;9.40;99.90;;;9.68;97.17;102755.28;4953545;29;20058;-63
2024/01/25 02:05:23;;;;;;;56.53;12.00;;;9.40;99.90;;;9.64;96.75;102756.03;4954487;29;20048;-64
2024/01/25 02:07:52;;;;;;;58.95;12.50;;;9.40;99.90;;;9.66;96.45;102745.50;4954316;29;20110;-64
2024/01/25 02:10:22;;;;;;;56.15;11.70;;;9.40;99.90;;;9.37;95.99;102688.31;4953412;28;20047;-64
2024/01/25 02:12:50;;;;;;;59.28;11.25;;;9.40;99.90;;;9.60;96.79;102751.50;4954674;28;20051;-63
2024/01/25 02:15:19;;;;;;;62.10;12.30;;;9.30;99.90;;;9.77;96.16;102749.38;4969221;28;20111;-64
2024/01/25 02:17:48;;;;;;;51.08;12.10;;;9.40;99.90;;;9.68;95.54;102757.91;4954189;29;20043;-65
2024/01/25 02:20:19;;;;;;;54.97;11.80;;;9.40;99.90;;;9.65;95.94;102755.19;4954196;28;20047;-63
2024/01/25 02:22:49;;;;;;;;;;;9.30;99.90;;;9.54;95.78;102755.72;4954860;29;20054;-63
2024/01/25 02:25:17;;;;;;;57.63;12.23;;;9.30;99.90;;;9.47;96.53;102757.28;4954574;29;20139;-63
2024/01/25 02:27:46;;;;;;;59.08;12.32;;;9.20;99.90;;;9.49;96.46;102738.81;4954226;29;20779;-62
2024/01/25 02:30:15;;;;;;;45.88;11.90;;;9.20;99.90;;;9.47;96.60;102740.53;4954426;29;20106;-62
2024/01/25 02:32:44;;;;;;;51.75;11.50;;;9.20;99.90;;;9.63;95.94;102741.03;4954116;29;20572;-63
2024/01/25 02:35:13;;;;;;;51.53;11.77;;;9.30;99.90;;;9.33;96.13;102718.09;4953770;28;20083;-64
2024/01/25 02:37:42;;;;;;;56.13;11.98;;;9.30;99.90;;;9.41;96.51;102742.97;4953760;29;20477;-64
2024/01/25 02:40:13;;;;;;;53.17;11.18;;;9.20;99.90;;;9.40;96.42;102762.31;4953738;28;20148;-64
2024/01/25 02:42:42;;;;;;;50.90;11.82;;;9.20;99.90;;;9.22;96.84;102730.06;4953663;29;20482;-63
2024/01/25 02:45:11;;;;;;;51.75;12.55;;;9.10;99.90;;;9.45;97.32;102743.13;4953652;29;20515;-62
2024/01/25 02:47:39;;;;;;;54.22;11.90;;;9.20;99.90;;;9.54;96.57;102759.25;4953685;28;20070;-63
2024/01/25 02:50:09;;;;;;;52.70;11.52;;;9.20;99.90;;;9.60;96.47;102755.91;4953788;29;20507;-63
2024/01/25 02:52:37;;;;;;;42.72;10.93;;;9.30;99.90;;;9.48;96.34;102750.25;4953484;29;20631;-64
2024/01/25 02:55:06;;;;;;;50.53;11.43;;;9.20;99.90;;;9.64;95.63;102758.66;4953367;29;20409;-63
2024/01/25 02:57:36;;;;;;;53.33;11.75;;;9.30;99.90;;;9.72;95.83;102746.59;4953493;29;20058;-65
2024/01/25 03:00:06;;;;;;;58.42;12.20;;;9.40;99.90;;;9.71;95.14;102752.75;4953512;28;20066;-62
2024/01/25 03:02:34;;;;;;;39.88;11.18;;;9.40;99.90;;;9.70;94.66;102758.84;4953716;28;20055;-64
2024/01/25 03:05:03;;;;;;;52.17;10.82;;;9.40;99.90;;;9.87;94.67;102762.00;4953775;29;20047;-63
2024/01/25 03:07:32;;;;;;;49.53;11.23;;;9.50;99.90;;;9.86;94.47;102754.91;4953569;29;20043;-63
2024/01/25 03:10:00;;;;;;;48.83;11.00;;;9.50;99.90;;;9.84;93.71;102753.97;4953203;29;20055;-65
2024/01/25 03:12:29;;;;;;;52.75;11.40;;;9.50;99.90;;;9.86;93.73;102755.81;4953256;29;20055;-63
2024/01/25 03:14:59;;;;;;;54.10;12.00;;;9.50;99.90;;;9.91;93.48;102769.19;4953104;29;20039;-64
2024/01/25 03:17:28;;;;;;;48.58;11.27;;;9.60;99.90;;;9.97;92.97;102764.94;4953420;29;20043;-64
2024/01/25 03:19:56;;;;;;;47.90;11.98;;;9.70;99.90;;;10.05;91.98;102767.78;4953318;28;20109;-63
2024/01/25 03:22:25;;;;;;;49.45;11.18;;;9.70;99.90;;;10.07;91.54;102762.53;4952808;28;20054;-64
2024/01/25 03:24:53;;;;;;;39.63;9.88;;;9.80;99.90;;;10.12;90.87;102760.97;4953234;29;20062;-64
2024/01/25 03:27:22;;;;;;;46.00;11.05;;;9.90;99.90;;;10.10;90.43;102754.75;4952983;29;20086;-64
2024/01/25 03:29:50;;;;;;;45.42;11.05;;;9.80;99.90;;;10.08;90.39;102761.72;4952939;28;20071;-63
2024/01/25 03:32:20;;;;;;;49.45;11.00;;;9.80;99.90;;;10.06;90.38;102759.03;4952872;29;20050;-63
2024/01/25 03:34:51;;;;;;;40.72;11.82;;;9.80;99.90;;;10.04;90.07;102768.66;4953254;29;20122;-62
2024/01/25 03:37:19;;;;;;;49.50;11.43;;;9.80;99.90;;;10.08;90.02;102756.41;4953124;28;20660;-63
2024/01/25 03:39:48;;;;;;;47.90;11.52;;;9.80;99.90;;;9.29;89.92;102598.25;4952999;29;20051;-65
2024/01/25 03:42:17;;;;;;;56.47;12.40;;;9.80;99.90;;;10.17;89.74;102760.25;4952824;29;20043;-62
2024/01/25 03:44:47;;;;;;;40.80;11.50;;;9.90;99.90;;;10.07;89.55;102767.81;4953013;29;20051;-63
2024/01/25 03:47:15;;;;;;;49.90;10.70;;;9.80;99.90;;;10.07;89.67;102757.25;4952983;28;20047;-62
2024/01/25 03:49:46;;;;;;;45.78;10.77;;;9.70;99.90;;;10.09;89.14;102758.19;4953020;29;20130;-65
2024/01/25 03:52:14;;;;;;;49.13;10.77;;;9.80;99.90;;;10.13;88.64;102757.47;4953278;29;20106;-63
2024/01/25 03:54:43;;;;;;;47.75;10.88;;;9.80;99.90;;;10.10;88.21;102765.31;4952511;28;20054;-62
2024/01/25 03:57:11;;;;;;;38.03;9.98;;;9.90;99.90;;;9.89;87.39;102768.22;4952867;28;20102;-64
2024/01/25 03:59:40;;;;;;;48.53;10.63;;;9.70;99.90;;;9.60;86.35;102767.34;4951122;29;20130;-63
2024/01/25 04:02:09;;;;;;;39.08;10.02;;;9.40;99.90;;;9.68;86.81;102764.94;4952626;29;20040;-62
2024/01/25 04:04:37;;;;;;;49.33;10.35;;;9.40;99.90;;;9.67;86.84;102748.22;4952815;29;20087;-64
2024/01/25 04:07:10;;;;;;;45.63;10.18;;;9.40;99.90;;;9.62;86.83;102754.22;4952526;29;20043;-63
2024/01/25 04:09:39;;;;;;;53.03;10.35;;;9.30;99.90;;;9.41;86.51;102748.25;4953003;29;20058;-65
2024/01/25 04:12:08;;;;;;;42.23;10.40;;;9.10;99.90;;;9.31;87.01;102759.41;4952501;29;20054;-62
2024/01/25 04:14:36;;;;;;;43.10;10.50;;;9.00;99.90;;;9.30;87.71;102747.03;4952620;29;20083;-65
2024/01/25 04:17:05;;;;;;;39.25;9.63;;;9.00;99.90;;;9.38;87.47;102750.81;4967488;28;20420;-63
2024/01/25 04:19:33;;;;;;;40.15;9.43;;;9.00;99.90;;;9.44;87.09;102754.56;4952895;29;20047;-64
2024/01/25 04:22:02;;;;;;;40.13;9.30;;;9.10;99.90;;;9.51;87.14;102759.16;4952363;29;20102;-64
2024/01/25 04:24:32;;;;;;;40.85;10.77;;;9.20;99.90;;;9.50;87.15;102752.09;4952889;28;20129;-64
2024/01/25 04:27:00;;;;;;;43.72;10.40;;;9.20;99.90;;;9.48;86.62;102756.44;4952379;28;20520;-64
2024/01/25 04:29:29;;;;;;;43.38;10.65;;;9.20;99.90;;;9.50;86.63;102754.75;4952605;29;20051;-64
2024/01/25 04:31:57;;;;;;;37.42;9.35;;;9.20;99.90;;;9.50;86.73;102767.94;4952804;28;20059;-64
2024/01/25 04:34:26;;;;;;;44.35;10.43;;;9.30;99.90;;;9.49;86.50;102747.66;4955264;28;20441;-63
2024/01/25 04:36:55;;;;;;;43.70;11.02;;;9.30;99.90;;;9.50;86.94;102752.09;4954904;29;20066;-63
2024/01/25 04:39:23;;;;;;;41.90;10.23;;;9.20;99.90;;;9.52;87.21;102754.78;4956010;28;20133;-62
2024/01/25 04:41:53;;;;;;;49.28;11.27;;;9.30;99.90;;;9.53;87.45;102748.63;4955893;29;20051;-64
2024/01/25 04:44:21;;;;;;;40.60;9.65;;;9.30;99.90;;;9.51;87.65;102745.06;4956450;28;20050;-63
2024/01/25 04:46:52;;;;;;;45.20;10.73;;;9.30;99.90;;;9.46;86.88;102750.22;4955774;28;20054;-64
2024/01/25 04:49:20;;;;;;;32.88;9.05;;;9.20;99.90;;;9.11;85.71;102756.16;4955839;28;20122;-64
2024/01/25 04:51:49;;;;;;;31.60;8.88;;;8.90;99.90;;;8.43;86.75;102771.41;4955731;29;20465;-66
2024/01/25 04:54:18;;;;;;;39.53;10.40;;;8.30;99.90;;;8.33;88.39;102769.28;4955721;29;20416;-63
2024/01/25 04:56:46;;;;;;;40.30;11.32;;;8.00;99.90;;;8.36;88.94;102759.78;4955854;29;20493;-64
2024/01/25 04:59:16;;;;;;;43.85;11.85;;;8.00;99.90;;;8.50;90.12;102752.31;4955880;29;20176;-64
2024/01/25 05:01:45;;;;;;;45.20;11.80;;;8.10;99.90;;;8.62;90.07;102752.72;4955436;29;20078;-64
2024/01/25 05:04:13;;;;;;;46.03;11.35;;;8.20;99.90;;;8.75;89.64;102747.06;4970614;28;20047;-64
2024/01/25 05:06:42;;;;;;;37.38;11.05;;;8.40;99.90;;;8.82;89.57;102756.94;4955454;28;20050;-67
2024/01/25 05:09:10;;;;;;;41.67;10.80;;;8.50;99.90;;;8.80;89.45;102777.09;4956531;29;20043;-65
2024/01/25 05:11:40;;;;;;;45.78;11.32;;;8.50;99.90;;;8.76;88.89;102777.84;4954344;28;20086;-64
2024/01/25 05:14:08;;;;;;;39.67;10.48;;;8.50;99.90;;;8.82;89.19;102786.88;4955354;28;20047;-65
2024/01/25 05:16:38;;;;;;;46.50;10.25;;;8.50;99.90;;;8.88;89.15;102779.13;4956097;29;20486;-63
2024/01/25 05:19:07;;;;;;;44.90;11.77;;;8.60;99.90;;;8.94;89.05;102773.19;4957195;29;20056;-65
2024/01/25 05:21:35;;;;;;;50.78;11.63;;;8.60;99.90;;;8.97;89.02;102781.19;4957071;29;20055;-64
2024/01/25 05:24:05;;;;;;;48.17;11.00;;;8.70;99.90;;;8.59;89.07;102707.81;4957303;29;20044;-63
2024/01/25 05:26:33;;;;;;;44.17;11.70;;;8.70;99.90;;;9.01;89.61;102772.53;4970531;28;20429;-64
2024/01/25 05:29:02;;;;;;;48.67;12.05;;;8.70;99.90;;;9.01;89.56;102783.09;4956008;29;20050;-63
2024/01/25 05:31:30;;;;;;;46.08;11.55;;;8.70;99.90;;;8.99;90.00;102779.50;4956908;28;20452;-64
2024/01/25 05:34:00;;;;;;;48.42;11.75;;;8.70;99.90;;;9.03;90.08;102776.13;4956840;29;20493;-63
2024/01/25 05:36:29;;;;;;;40.28;11.77;;;8.70;99.90;;;9.00;89.95;102778.66;4957202;28;20130;-64
2024/01/25 05:38:58;;;;;;;37.38;11.52;;;8.70;99.90;;;8.67;89.37;102777.56;4956796;28;20456;-64
2024/01/25 05:41:26;;;;;;;47.45;11.38;;;8.50;99.90;;;8.56;89.81;102781.53;4957286;29;20078;-64
2024/01/25 05:43:57;;;;;;;38.35;10.10;;;8.30;99.90;;;8.52;90.18;102790.19;4957164;28;20051;-64
2024/01/25 05:46:25;;;;;;;;;;;8.20;99.90;;;8.27;90.85;102788.44;4957167;28;20047;-63
2024/01/25 05:48:53;;;;;;;51.85;11.15;;;8.00;99.90;;;8.31;92.27;102777.16;4955801;29;19981;-64
2024/01/25 05:51:24;;;;;;;55.28;12.07;;;8.00;99.90;;;8.32;93.00;102785.97;4956924;28;20078;-63
2024/01/25 05:53:52;;;;;;;43.10;11.27;;;8.00;99.90;;;8.38;93.97;102791.47;4956513;29;20047;-65
2024/01/25 05:56:20;;;;;;;46.13;11.15;;;8.00;99.90;;;8.42;93.82;102788.09;4956456;29;20039;-63
2024/01/25 05:58:49;;;;;;;49.55;10.98;;;8.10;99.90;;;8.52;94.14;102798.09;4956630;28;20057;-64
2024/01/25 06:01:19;;;;;;;42.25;11.43;;;8.20;99.90;;;8.46;94.15;102785.59;4956854;29;20055;-64
2024/01/25 06:03:47;;;;;;;43.47;12.32;;;8.20;99.90;;;8.57;94.03;102804.44;4955319;29;20044;-64
2024/01/25 06:06:16;;;;;;;48.33;11.18;;;8.30;99.90;;;8.52;94.10;102803.38;4956849;29;20146;-64
2024/01/25 06:08:46;;;;;;;44.10;11.38;;;8.30;99.90;;;8.49;94.29;102785.72;4956219;29;20050;-64
2024/01/25 06:11:25;;;;;;;46.47;11.10;;;8.20;99.90;;;8.52;93.83;102795.47;4956631;28;20054;-64
2024/01/25 06:13:54;;;;;;;47.95;11.55;;;8.20;99.90;;;8.41;93.82;102795.09;4971236;28;20043;-64
2024/01/25 06:16:22;;;;;;;46.58;11.35;;;8.10;99.90;;;8.36;94.37;102801.97;4956057;29;20051;-64
2024/01/25 06:18:51;;;;;;;46.35;11.32;;;8.20;99.90;;;8.62;94.07;102787.03;4956018;29;20416;-64
2024/01/25 06:21:20;;;;;;;46.30;11.93;;;8.30;99.90;;;8.50;93.37;102742.66;4956107;29;20071;-64
2024/01/25 06:23:50;;;;;;;53.55;11.95;;;8.40;99.90;;;8.70;93.30;102777.63;4955944;28;20552;-63
2024/01/25 06:26:18;;;;;;;51.17;11.52;;;8.40;99.90;;;8.74;93.13;102785.72;4954979;29;20043;-63
2024/01/25 06:28:47;;;;;;;50.78;11.38;;;8.40;99.90;;;8.75;93.96;102776.94;4955846;29;20043;-64
2024/01/25 06:31:15;;;;;;;45.95;11.98;;;8.50;99.90;;;8.85;93.38;102783.41;4955825;29;20126;-64
2024/01/25 06:33:46;;;;;;;50.42;10.88;;;8.60;99.90;;;8.85;93.14;102779.03;4955726;28;20046;-63
2024/01/25 06:36:16;;;;;;;23.10;7.68;;;8.60;99.90;;;8.70;91.75;102796.09;4955564;29;20049;-64
2024/01/25 06:38:44;;;;;;;35.25;9.88;;;8.50;99.90;;;8.14;90.82;102712.38;4955601;28;20082;-63
2024/01/25 06:41:14;;;;;;;39.38;10.52;;;8.40;99.90;;;8.69;91.43;102810.16;4954316;29;20058;-64
2024/01/25 06:43:43;;;;;;;45.97;11.00;;;8.40;99.90;;;8.70;92.61;102812.84;4955599;29;20035;-63
2024/01/25 06:46:11;;;;;;;50.92;10.88;;;8.40;99.90;;;8.75;93.18;102794.53;4956025;28;20071;-63
2024/01/25 06:48:40;;;;;;;45.35;10.52;;;8.40;99.90;;;8.77;93.93;102793.72;4955505;28;20122;-63
2024/01/25 06:51:08;;;;;;;43.33;10.73;;;8.40;99.90;;;8.75;93.99;102784.84;4955465;29;20111;-63
2024/01/25 06:53:37;;;;;;;44.50;10.73;;;8.50;99.90;;;8.73;94.06;102790.94;4955410;28;20071;-63
2024/01/25 06:56:06;;;;;;;43.08;9.60;;;8.40;99.90;;;8.52;93.97;102754.16;4954760;28;20114;-63
2024/01/25 06:58:36;;;;;;;41.08;11.38;;;8.40;99.90;;;8.70;93.67;102791.72;4955816;28;20135;-63
2024/01/25 07:01:05;;;;;;;45.55;11.35;;;8.40;99.90;;;8.67;93.52;102794.25;4955674;29;20051;-63
2024/01/25 07:03:34;;;;;;;49.55;11.52;;;8.40;99.90;;;8.67;93.34;102793.38;4955197;29;20505;-63
2024/01/25 07:06:03;;;;;;;47.58;11.57;;;8.40;99.90;;;8.64;93.41;102787.97;4955385;29;20151;-65
2024/01/25 07:08:32;;;;;;;54.63;12.10;;;8.30;99.90;;;8.69;93.09;102784.66;4954068;29;20457;-63
2024/01/25 07:11:01;;;;;;;54.95;11.02;;;8.40;99.90;;;8.71;93.38;102788.22;4955309;29;20047;-63
2024/01/25 07:13:30;;;;;;;51.30;11.43;;;8.40;99.90;;;8.73;93.29;102798.88;4955091;28;20070;-64
2024/01/25 07:16:00;;;;;;;53.83;12.13;;;8.40;99.90;;;8.78;92.94;102805.19;4953961;29;20058;-63
2024/01/25 07:18:28;;;;;;;48.95;11.82;;;8.50;99.90;;;8.81;92.90;102802.63;4955031;28;20054;-63
2024/01/25 07:20:57;;;;;;;43.63;10.70;;;8.60;99.90;;;8.77;92.65;102808.66;4953484;29;20055;-63
2024/01/25 07:23:26;;;;;;;43.75;11.05;;;8.50;99.90;;;8.75;92.25;102799.81;4954788;28;20051;-63
2024/01/25 07:25:55;;;;;;;40.42;11.60;;;8.50;99.90;;;8.70;92.39;102794.38;4954654;29;20051;-63
2024/01/25 07:28:23;;;;;;;42.80;10.88;;;8.40;99.90;;;8.66;92.38;102795.09;4954672;29;20055;-63
2024/01/25 07:30:52;;;;;;;52.15;11.90;;;8.40;99.90;;;8.56;93.27;102786.81;4954734;29;20043;-64
2024/01/25 07:33:23;;;;;;;42.53;12.23;;;8.30;99.90;;;8.48;93.00;102793.59;4954836;28;20055;-64
2024/01/25 07:35:52;;;;;;;51.85;12.15;;;8.20;99.90;;;8.47;93.44;102794.41;4953237;28;20597;-63
2024/01/25 07:38:20;;;;;;;48.78;11.18;;;8.10;99.90;;;8.65;93.64;102808.25;4953543;28;20105;-63
2024/01/25 07:40:49;;;;;;;45.40;11.88;;;8.30;99.90;;;8.75;93.37;102807.72;4952774;29;20081;-62
2024/01/25 07:43:17;;;;;;;49.53;11.27;;;8.40;99.90;;;8.80;93.32;102821.97;4967859;28;20135;-62
2024/01/25 07:45:46;;;;;;;37.28;11.07;;;8.50;99.90;;;8.80;93.40;102814.03;4952605;29;20046;-62
2024/01/25 07:48:15;;;;;;;45.17;11.40;;;8.50;99.90;;;8.79;93.50;102797.31;4953189;29;20050;-63
2024/01/25 07:50:50;;;;;;;43.72;11.57;;;8.50;99.90;;;8.72;93.94;102782.13;4952684;29;20118;-62
2024/01/25 07:53:19;;;;;;;52.88;13.18;;;8.50;99.90;;;8.81;94.18;102815.81;4951671;28;20504;-63
2024/01/25 07:55:47;;;;;;;47.40;11.93;;;8.50;99.90;;;8.85;93.82;102802.78;4952628;29;20062;-64
2024/01/25 07:58:18;;;;;;;52.95;13.18;;;8.60;99.90;;;8.62;94.38;102764.19;4952644;29;20043;-62
2024/01/25 08:00:48;;;;;;;47.42;11.57;;;8.50;99.90;;;8.67;93.83;102782.81;4952543;28;20051;-62
2024/01/25 08:03:18;;;;;;;47.03;12.85;;;8.40;99.90;;;8.68;94.38;102793.41;4952663;28;20108;-63
2024/01/25 08:05:49;;;;;;;44.33;11.60;;;8.40;99.90;;;8.70;94.17;102790.81;4952452;29;20047;-62
2024/01/25 08:08:19;;;;;;;47.70;11.73;;;8.40;99.90;;;7.84;94.16;102659.47;4954387;28;20047;-62
2024/01/25 08:10:47;;;;;;;40.67;11.27;;;8.30;99.90;;;8.64;94.05;102791.53;4956481;29;20053;-64
2024/01/25 08:13:16;;;;;;;50.95;11.32;;;8.30;99.90;;;8.59;94.51;102785.22;4956749;29;20469;-64
2024/01/25 08:15:45;;;;;;;45.67;11.57;;;8.30;99.90;;;8.63;94.15;102788.84;4956660;28;20053;-66
2024/01/25 08:18:14;;;;;;;47.17;11.75;;;8.30;99.90;;;8.65;94.04;102793.28;4956787;28;20043;-63
2024/01/25 08:20:42;;;;;;;40.85;11.68;;;8.40;99.90;;;8.67;94.21;102798.66;4955159;29;20563;-65
2024/01/25 08:23:13;;;;;;;49.38;11.73;;;8.40;99.90;;;8.71;94.38;102797.91;4956332;29;20051;-64
2024/01/25 08:25:42;;;;;;;48.33;11.35;;;8.40;99.90;;;8.75;94.81;102797.19;4956223;29;20098;-61
2024/01/25 08:28:11;;;;;;;46.95;10.80;;;8.50;99.90;;;8.68;94.83;102798.69;4956201;28;20110;-63
2024/01/25 08:30:39;;;;;;;46.03;10.70;;;8.40;99.90;;;8.66;94.61;102799.47;4956652;28;20150;-73
2024/01/25 08:33:08;;;;;;;55.40;13.10;;;8.40;99.90;;;8.71;94.98;102809.34;4956415;28;20375;-63
2024/01/25 08:35:36;;;;;;;43.00;10.77;;;8.40;99.90;;;8.73;95.14;102789.19;4956103;29;20122;-62
2024/01/25 08:38:05;;;;;;;43.33;11.13;;;8.40;99.90;;;8.80;94.98;102795.56;4955988;28;20047;-63
2024/01/25 08:40:35;;;;;;;41.08;11.93;;;8.40;99.90;;;8.71;94.39;102790.00;4955968;29;20051;-62
2024/01/25 08:43:05;;;;;;;45.65;10.50;;;8.40;99.90;;;8.74;95.00;102798.91;4956316;28;20441;-61
2024/01/25 08:45:33;;;;;;;47.07;11.43;;;8.40;99.90;;;8.67;95.42;102794.25;4956452;28;20055;-62
2024/01/25 08:48:02;;;;;;;43.17;13.25;;;8.30;99.90;;;8.76;95.45;102797.22;4955888;28;20055;-61
2024/01/25 08:50:31;;;;;;;47.05;12.18;;;8.40;99.90;;;8.69;95.63;102767.94;4955839;29;20054;-61
2024/01/25 08:53:00;;;;;;;49.35;13.27;;;8.50;99.90;;;8.96;95.77;102800.53;4955773;28;20409;-64
2024/01/25 08:55:29;;;;;;;59.00;14.30;;;8.60;99.90;;;9.06;96.37;102798.22;4954679;29;20086;-61
2024/01/25 08:57:59;;;;;;;59.80;14.57;;;8.80;99.90;;;9.23;96.20;102793.50;4955820;29;20401;-62
2024/01/25 09:00:27;;;;;;;59.60;14.45;;;8.90;99.90;;;9.38;95.75;102790.44;4955520;29;20110;-64
2024/01/25 09:02:56;;;;;;;55.55;14.18;;;9.00;99.90;;;9.47;95.04;102782.78;4955589;29;20043;-62
2024/01/25 09:05:27;;;;;;;61.80;13.77;;;9.20;99.90;;;9.51;94.97;102787.31;4955543;29;20047;-64
2024/01/25 09:07:56;;;;;;;54.33;14.40;;;9.20;99.90;;;9.48;94.38;102788.13;4955478;29;20051;-62
2024/01/25 09:10:25;;;;;;;55.00;16.25;;;9.20;99.90;;;9.49;94.46;102779.34;4955398;28;20066;-63
2024/01/25 09:12:53;;;;;;;61.63;15.32;;;9.20;99.90;;;9.49;93.99;102783.72;4955356;28;20074;-63
2024/01/25 09:15:23;;;;;;;55.75;15.65;;;9.20;99.90;;;9.27;94.02;102773.38;4955334;28;20078;-61
2024/01/25 09:17:52;;;;;;;53.70;15.27;;;9.10;99.90;;;9.17;94.21;102774.81;4955567;28;20059;-64
2024/01/25 09:20:20;;;;;;;59.42;14.30;;;9.00;99.90;;;9.10;95.04;102775.47;4954760;28;20139;-63
2024/01/25 09:22:49;;;;;;;49.72;12.77;;;8.90;99.90;;;9.14;95.13;102772.06;4954066;29;20074;-63
2024/01/25 09:25:17;;;;;;;45.78;12.75;;;8.90;99.90;;;9.23;95.36;102775.03;4955128;29;20055;-64
2024/01/25 09:27:46;;;;;;;52.13;13.07;;;8.90;99.90;;;9.28;94.66;102764.59;4955445;29;20503;-63
2024/01/25 09:30:16;;;;;;;43.47;12.02;;;9.00;99.90;;;9.33;94.63;102778.84;4955117;28;20047;-62
2024/01/25 09:32:48;;;;;;;50.85;13.27;;;9.00;99.90;;;9.42;94.64;102773.84;4955070;28;20055;-63
2024/01/25 09:35:18;;;;;;;42.88;11.70;;;9.10;99.90;;;9.44;94.31;102775.69;4953974;29;20441;-62
2024/01/25 09:37:46;;;;;;;50.65;11.82;;;9.20;99.90;;;9.33;94.88;102773.56;4954729;28;20133;-63
2024/01/25 09:40:15;;;;;;;45.90;12.93;;;9.10;99.90;;;9.00;95.14;102739.94;4954887;29;20138;-64
2024/01/25 09:42:44;;;;;;;49.65;12.80;;;9.10;99.90;;;9.22;95.88;102767.03;4955027;29;20138;-64
2024/01/25 09:45:17;;;;;;;42.55;12.40;;;9.00;99.90;;;9.32;96.45;102764.75;4954712;29;20043;-63
2024/01/25 09:47:47;;;;;;;44.42;12.73;;;9.00;99.90;;;9.33;96.72;102757.72;4953698;29;20061;-65
2024/01/25 09:50:16;;;;;;;;;;;9.10;99.90;;;9.47;96.87;102756.38;4955150;29;20114;-63
2024/01/25 09:52:46;;;;;;;46.38;13.05;;;9.20;99.90;;;9.54;96.69;102761.88;4954668;28;19929;-64
2024/01/25 09:55:17;;;;;;;46.42;11.85;;;9.30;99.90;;;9.61;96.71;102768.25;4954327;29;20066;-62
2024/01/25 09:57:49;;;;;;;45.78;12.70;;;9.30;99.90;;;9.67;96.70;102758.78;4955056;28;20051;-62
2024/01/25 10:00:20;;;;;;;41.50;12.10;;;9.40;99.90;;;9.75;96.39;102746.69;4954382;28;20511;-61
2024/01/25 10:02:50;;;;;;;46.75;12.27;;;9.50;99.90;;;9.86;96.39;102753.19;4954490;28;20571;-62
2024/01/25 10:05:19;;;;;;;44.65;12.13;;;9.60;99.90;;;9.94;95.97;102748.09;4953176;29;20055;-62
2024/01/25 10:07:47;;;;;;;45.70;12.88;;;9.60;99.90;;;9.92;95.84;102741.88;4954459;28;20046;-62
2024/01/25 10:10:15;;;;;;;46.78;13.25;;;9.70;99.90;;;9.78;96.63;102740.56;4954340;29;20456;-62
2024/01/25 10:12:44;;;;;;;54.10;13.50;;;9.60;99.90;;;9.71;97.14;102726.31;4954807;28;20051;-63
2024/01/25 10:15:13;;;;;;;49.72;12.63;;;9.60;99.90;;;9.94;97.06;102740.16;4954128;29;20051;-62
2024/01/25 10:17:42;;;;;;;42.53;12.77;;;9.70;99.90;;;10.01;97.09;102750.97;4954091;29;20043;-63
2024/01/25 10:20:34;;;;;;;37.30;12.40;;;9.70;99.90;;;10.08;97.22;102754.69;4954177;29;20125;-63